Time;durP1;ratioP1;P1;durP2;ratioP2;P2;SDS_P1;SDS_P2;PMS_P1;PMS_P2;Temp;Humidity;BMP_temperature;BMP_pressure;BME280_temperature;BME280_humidity;BME280_pressure;Samples;Min_cycle;Max_cycle;Signal;HPM_P1;HPM_P2
2021/04/04 00:02:25;;;;;;;20.33;6.85;;;5.80;99.90;;;;;;5073442;28;20029;-60
2021/04/04 00:04:51;;;;;;;27.00;6.60;;;5.90;99.90;;;;;;5073234;28;20039;-60
2021/04/04 00:07:17;;;;;;;24.90;5.88;;;5.90;99.90;;;;;;5072711;28;20029;-60
2021/04/04 00:09:43;;;;;;;28.38;6.85;;;6.00;99.90;;;;;;5073268;28;20029;-60
2021/04/04 00:12:09;;;;;;;26.80;7.78;;;6.00;99.90;;;;;;5072591;28;20106;-60
2021/04/04 00:14:35;;;;;;;22.65;7.00;;;6.00;99.90;;;;;;5071639;28;20043;-60
2021/04/04 00:17:03;;;;;;;31.33;7.15;;;6.10;99.90;;;;;;5072977;28;20035;-60
2021/04/04 00:19:28;;;;;;;26.35;6.30;;;6.10;99.90;;;;;;5072651;28;20035;-60
2021/04/04 00:21:54;;;;;;;27.38;6.13;;;6.10;99.90;;;;;;5071547;28;20115;-60
2021/04/04 00:24:19;;;;;;;23.95;6.75;;;6.20;99.90;;;;;;5072631;28;20017;-60
2021/04/04 00:26:45;;;;;;;38.80;7.32;;;6.20;99.90;;;;;;5071674;28;20078;-60
2021/04/04 00:29:12;;;;;;;26.52;6.07;;;6.20;99.90;;;;;;5072444;28;20052;-60
2021/04/04 00:31:38;;;;;;;32.28;7.32;;;6.20;99.90;;;;;;5072668;28;20071;-60
2021/04/04 00:34:05;;;;;;;29.23;6.70;;;6.30;99.90;;;;;;5071603;28;20491;-60
2021/04/04 00:36:31;;;;;;;25.88;6.30;;;6.30;99.90;;;;;;5072706;28;20021;-60
2021/04/04 00:38:57;;;;;;;26.02;7.43;;;6.40;99.90;;;;;;5071335;28;20118;-61
2021/04/04 00:41:22;;;;;;;23.45;6.60;;;6.40;99.90;;;;;;5072541;28;20029;-60
2021/04/04 00:43:48;;;;;;;25.17;6.53;;;6.40;99.90;;;;;;5072243;28;20473;-60
2021/04/04 00:46:14;;;;;;;26.65;6.60;;;6.40;99.90;;;;;;5072754;28;20522;-60
2021/04/04 00:48:39;;;;;;;23.48;6.78;;;6.40;99.90;;;;;;5072730;28;20131;-60
2021/04/04 00:51:05;;;;;;;27.10;6.38;;;6.30;99.90;;;;;;5072160;28;20044;-60
2021/04/04 00:53:31;;;;;;;21.20;6.25;;;6.40;99.90;;;;;;5071996;28;20020;-60
2021/04/04 00:55:57;;;;;;;27.23;7.10;;;6.40;99.90;;;;;;5070850;28;20584;-60
2021/04/04 00:58:22;;;;;;;26.02;7.07;;;6.40;99.90;;;;;;5072301;28;20419;-60
2021/04/04 01:00:48;;;;;;;23.00;7.38;;;6.40;99.90;;;;;;5070936;28;20032;-60
2021/04/04 01:03:14;;;;;;;27.88;7.35;;;6.40;99.90;;;;;;5072312;28;20035;-60
2021/04/04 01:05:43;;;;;;;26.20;7.35;;;6.30;99.90;;;;;;5071733;28;20478;-60
2021/04/04 01:08:09;;;;;;;23.23;7.38;;;6.30;99.90;;;;;;5070495;28;20473;-60
2021/04/04 01:10:39;;;;;;;31.33;8.10;;;6.30;99.90;;;;;;5071463;28;20024;-60
2021/04/04 01:13:26;;;;;;;31.10;8.00;;;6.40;99.90;;;;;;5072067;28;20477;-60
2021/04/04 01:15:59;;;;;;;28.45;7.90;;;6.40;99.90;;;;;;5071620;28;20021;-60
2021/04/04 01:18:38;;;;;;;35.50;8.55;;;6.40;99.90;;;;;;5069958;28;20031;-60
2021/04/04 01:21:43;;;;;;;21.50;7.88;;;6.40;99.90;;;;;;5071660;28;20670;-60
2021/04/04 01:24:25;;;;;;;27.95;8.45;;;6.40;99.90;;;;;;5040419;28;20123;-60
2021/04/04 01:27:04;;;;;;;30.17;9.32;;;6.40;99.90;;;;;;5071932;28;20431;-60
2021/04/04 01:29:32;;;;;;;32.58;9.75;;;6.40;99.90;;;;;;5071662;28;20481;-60
2021/04/04 01:31:58;;;;;;;31.05;9.38;;;6.40;99.90;;;;;;5071587;28;20089;-60
2021/04/04 01:34:27;;;;;;;33.20;10.40;;;6.40;99.90;;;;;;5071817;28;20028;-60
2021/04/04 01:36:57;;;;;;;35.50;11.68;;;6.40;99.90;;;;;;5071778;28;20027;-60
2021/04/04 01:39:27;;;;;;;29.63;12.23;;;6.40;99.90;;;;;;5070080;28;20182;-60
2021/04/04 01:41:55;;;;;;;36.47;13.35;;;6.40;99.90;;;;;;5071354;28;20430;-60
2021/04/04 01:44:23;;;;;;;30.73;14.23;;;6.50;99.90;;;;;;5069798;28;20516;-60
2021/04/04 01:46:52;;;;;;;29.58;14.07;;;6.60;99.90;;;;;;5071368;28;20035;-60
2021/04/04 01:49:20;;;;;;;34.13;13.02;;;6.50;99.90;;;;;;5069855;28;20079;-60
2021/04/04 01:51:47;;;;;;;29.23;11.55;;;6.50;99.90;;;;;;5069970;28;20039;-60
2021/04/04 01:54:15;;;;;;;27.65;13.00;;;6.50;99.90;;;;;;5069933;28;20078;-60
2021/04/04 01:56:42;;;;;;;34.40;11.60;;;6.50;99.90;;;;;;5071722;28;20033;-60
2021/04/04 01:59:10;;;;;;;28.55;11.32;;;6.60;99.90;;;;;;5071607;28;20020;-60
2021/04/04 02:01:36;;;;;;;30.63;12.38;;;6.50;99.90;;;;;;5070114;28;20499;-60
2021/04/04 02:04:07;;;;;;;34.22;11.60;;;6.50;99.90;;;;;;5071362;28;20056;-60
2021/04/04 02:06:42;;;;;;;33.53;11.73;;;6.40;99.90;;;;;;5071590;28;20469;-60
2021/04/04 02:09:15;;;;;;;28.27;10.75;;;6.50;99.90;;;;;;5072040;28;20104;-60
2021/04/04 02:11:42;;;;;;;23.48;12.68;;;6.50;99.90;;;;;;5071433;28;20119;-60
2021/04/04 02:14:11;;;;;;;36.30;11.93;;;6.50;99.90;;;;;;5071115;28;20381;-60
2021/04/04 02:16:41;;;;;;;31.92;12.43;;;6.50;99.90;;;;;;5070163;28;20366;-60
2021/04/04 02:19:13;;;;;;;32.38;11.82;;;6.60;99.90;;;;;;5069785;28;20428;-60
2021/04/04 02:21:42;;;;;;;29.40;11.45;;;6.60;99.90;;;;;;5069687;28;20035;-60
2021/04/04 02:24:09;;;;;;;27.77;12.10;;;6.60;99.90;;;;;;5070995;28;20127;-60
2021/04/04 02:26:35;;;;;;;28.17;12.15;;;6.60;99.90;;;;;;5070746;28;20435;-60
2021/04/04 02:29:01;;;;;;;33.95;13.02;;;6.60;99.90;;;;;;5069664;28;20033;-60
2021/04/04 02:31:31;;;;;;;26.17;12.35;;;6.60;99.90;;;;;;5074862;28;20035;-60
2021/04/04 02:34:02;;;;;;;35.47;12.85;;;6.60;99.90;;;;;;5075052;28;20104;-60
2021/04/04 02:36:30;;;;;;;27.85;11.88;;;6.60;99.90;;;;;;5075041;28;20073;-60
2021/04/04 02:39:01;;;;;;;24.70;12.05;;;6.60;99.90;;;;;;5073556;28;20028;-60
2021/04/04 02:41:29;;;;;;;28.15;12.35;;;6.50;99.90;;;;;;5073516;28;20032;-60
2021/04/04 02:43:56;;;;;;;29.95;12.82;;;6.50;99.90;;;;;;5074757;28;20032;-60
2021/04/04 02:46:23;;;;;;;33.50;12.75;;;6.60;99.90;;;;;;5074683;28;20412;-60
2021/04/04 02:49:05;;;;;;;22.70;12.18;;;6.60;99.90;;;;;;5074605;28;20035;-60
2021/04/04 02:51:42;;;;;;;30.00;11.95;;;6.60;99.90;;;;;;5074602;28;20037;-60
2021/04/04 02:54:10;;;;;;;26.25;12.77;;;6.70;99.90;;;;;;5073279;28;20020;-60
2021/04/04 02:56:38;;;;;;;28.55;12.80;;;6.80;99.90;;;;;;5073459;28;20051;-61
2021/04/04 02:59:10;;;;;;;28.13;12.85;;;6.80;99.90;;;;;;5073158;28;20020;-61
2021/04/04 03:01:38;;;;;;;30.77;12.80;;;6.80;99.90;;;;;;5074515;28;20031;-61
2021/04/04 03:04:05;;;;;;;36.60;13.88;;;6.70;99.90;;;;;;5074422;28;20052;-60
2021/04/04 03:06:32;;;;;;;33.25;12.68;;;6.80;99.90;;;;;;5073113;28;20032;-60
2021/04/04 03:09:01;;;;;;;40.05;14.57;;;6.90;99.90;;;;;;5074275;28;20043;-60
2021/04/04 03:11:27;;;;;;;28.15;13.85;;;6.90;99.90;;;;;;5074349;28;20179;-60
2021/04/04 03:13:54;;;;;;;34.10;15.10;;;7.00;99.90;;;;;;5073039;28;20021;-60
2021/04/04 03:16:21;;;;;;;39.92;15.85;;;7.20;99.90;;;;;;5073958;28;20021;-60
2021/04/04 03:18:48;;;;;;;37.88;15.45;;;7.10;99.90;;;;;;5073043;28;20116;-61
2021/04/04 03:21:16;;;;;;;45.83;17.83;;;7.20;99.90;;;;;;5074411;28;20031;-60
2021/04/04 03:23:44;;;;;;;38.17;17.67;;;7.40;99.90;;;;;;5073747;28;20093;-60
2021/04/04 03:26:12;;;;;;;41.20;18.50;;;7.40;99.90;;;;;;5073034;28;20464;-61
2021/04/04 03:28:40;;;;;;;41.53;20.80;;;7.20;99.90;;;;;;5074158;28;20025;-61
2021/04/04 03:31:06;;;;;;;49.45;20.77;;;7.10;99.90;;;;;;5073998;28;20028;-61
2021/04/04 03:33:32;;;;;;;48.60;21.52;;;7.00;99.90;;;;;;5073983;28;20035;-61
2021/04/04 03:35:58;;;;;;;45.38;21.48;;;7.20;99.90;;;;;;5072200;28;20028;-60
2021/04/04 03:38:26;;;;;;;43.22;21.30;;;7.30;99.90;;;;;;5072619;28;20025;-60
2021/04/04 03:40:53;;;;;;;44.53;21.58;;;7.60;99.90;;;;;;5073172;28;20016;-60
2021/04/04 03:43:29;;;;;;;55.08;22.15;;;7.70;99.90;;;;;;5073249;28;20465;-60
2021/04/04 03:46:00;;;;;;;42.90;21.35;;;7.70;99.90;;;;;;5073863;28;20040;-60
2021/04/04 03:48:29;;;;;;;43.85;21.33;;;7.50;99.90;;;;;;5073773;28;20020;-60
2021/04/04 03:50:56;;;;;;;45.25;21.60;;;7.50;99.90;;;;;;5073595;28;20124;-60
2021/04/04 03:53:26;;;;;;;52.00;22.35;;;7.50;99.90;;;;;;5073399;28;20286;-60
2021/04/04 03:56:00;;;;;;;40.42;21.40;;;7.50;99.90;;;;;;5071984;28;20024;-60
2021/04/04 03:58:27;;;;;;;42.38;22.65;;;7.60;99.90;;;;;;5072435;28;20074;-60
2021/04/04 04:00:55;;;;;;;49.83;22.50;;;7.60;99.90;;;;;;5072933;28;20021;-60
2021/04/04 04:03:22;;;;;;;53.20;22.00;;;7.30;99.90;;;;;;5073315;28;20056;-60
2021/04/04 04:05:49;;;;;;;44.88;19.98;;;7.00;99.90;;;;;;5073500;28;20070;-60
2021/04/04 04:08:16;;;;;;;41.15;20.55;;;7.00;99.90;;;;;;5072049;28;20477;-60
2021/04/04 04:10:43;;;;;;;39.30;20.58;;;7.00;99.90;;;;;;5073665;28;20025;-60
2021/04/04 04:13:10;;;;;;;42.22;19.95;;;6.80;99.90;;;;;;5071861;28;20056;-61
2021/04/04 04:15:35;;;;;;;40.67;20.45;;;6.80;99.90;;;;;;5072860;28;20013;-61
2021/04/04 04:18:04;;;;;;;38.97;20.05;;;6.70;99.90;;;;;;5073039;28;20029;-61
2021/04/04 04:20:31;;;;;;;38.05;20.63;;;6.80;99.90;;;;;;5073066;28;20028;-61
2021/04/04 04:23:05;;;;;;;41.13;20.48;;;7.00;99.90;;;;;;5072812;28;20032;-61
2021/04/04 04:25:32;;;;;;;42.67;19.55;;;7.00;99.90;;;;;;5071470;28;20031;-61
2021/04/04 04:27:58;;;;;;;42.95;18.42;;;7.00;99.90;;;;;;5072947;28;20477;-61
2021/04/04 04:30:25;;;;;;;37.00;18.15;;;7.00;99.90;;;;;;5072790;28;20036;-61
2021/04/04 04:32:56;;;;;;;39.60;18.70;;;7.00;99.90;;;;;;5072930;28;20040;-60
2021/04/04 04:35:23;;;;;;;39.05;18.98;;;7.00;99.90;;;;;;5072999;28;20024;-60
2021/04/04 04:37:50;;;;;;;48.70;19.63;;;7.00;99.90;;;;;;5072553;28;20017;-60
2021/04/04 04:40:18;;;;;;;43.20;19.73;;;7.10;99.90;;;;;;5071393;28;20489;-61
2021/04/04 04:42:47;;;;;;;42.83;20.08;;;7.20;99.90;;;;;;5072334;28;20024;-60
2021/04/04 04:45:26;;;;;;;41.30;18.92;;;7.20;99.90;;;;;;5072470;28;20510;-60
2021/04/04 04:47:53;;;;;;;36.33;18.75;;;7.20;99.90;;;;;;5072650;28;20090;-60
2021/04/04 04:50:20;;;;;;;37.55;19.15;;;7.10;99.90;;;;;;5071809;28;20082;-60
2021/04/04 04:52:46;;;;;;;35.92;18.40;;;7.10;99.90;;;;;;5072799;28;20111;-62
2021/04/04 04:55:12;;;;;;;39.78;20.02;;;7.20;99.90;;;;;;5073428;28;20120;-61
2021/04/04 04:57:39;;;;;;;46.17;20.58;;;7.20;99.90;;;;;;5072626;28;20051;-61
2021/04/04 05:00:07;;;;;;;34.05;18.48;;;7.20;99.90;;;;;;5071594;28;20028;-61
2021/04/04 05:02:34;;;;;;;33.78;18.55;;;7.20;99.90;;;;;;5070763;28;20119;-61
2021/04/04 05:05:01;;;;;;;35.47;17.50;;;7.20;99.90;;;;;;5071875;28;20052;-60
2021/04/04 05:07:29;;;;;;;40.08;18.15;;;7.20;99.90;;;;;;5071955;28;20067;-60
2021/04/04 05:09:55;;;;;;;41.38;17.77;;;7.20;99.90;;;;;;5071914;28;20535;-60
2021/04/04 05:12:22;;;;;;;33.78;17.83;;;7.10;99.90;;;;;;5071807;28;20138;-60
2021/04/04 05:14:48;;;;;;;35.25;15.60;;;7.10;99.90;;;;;;5070624;28;20051;-61
2021/04/04 05:17:15;;;;;;;38.67;17.23;;;7.20;99.90;;;;;;5072385;28;20017;-61
2021/04/04 05:19:41;;;;;;;35.25;16.17;;;7.20;99.90;;;;;;5072107;28;20043;-60
2021/04/04 05:22:09;;;;;;;32.97;15.65;;;7.30;99.90;;;;;;5071844;28;20036;-60
2021/04/04 05:24:36;;;;;;;33.33;16.40;;;7.20;99.90;;;;;;5071727;28;20028;-60
2021/04/04 05:27:03;;;;;;;42.08;15.70;;;7.20;99.90;;;;;;5071800;28;20274;-60
2021/04/04 05:29:28;;;;;;;41.15;16.90;;;7.30;99.90;;;;;;5070378;28;20036;-61
2021/04/04 05:31:56;;;;;;;34.42;15.73;;;7.30;99.90;;;;;;5072163;28;20028;-61
2021/04/04 05:34:22;;;;;;;30.98;15.48;;;7.40;99.90;;;;;;5070487;28;20318;-61
2021/04/04 05:36:51;;;;;;;38.67;15.35;;;7.40;99.90;;;;;;5070644;28;20093;-61
2021/04/04 05:39:18;;;;;;;32.40;15.02;;;7.40;99.90;;;;;;5070469;28;20027;-61
2021/04/04 05:41:51;;;;;;;32.03;14.25;;;7.40;99.90;;;;;;5071630;28;20083;-61
2021/04/04 05:44:22;;;;;;;32.47;13.95;;;7.40;99.90;;;;;;5070708;28;20024;-61
2021/04/04 05:46:55;;;;;;;33.33;13.90;;;7.50;99.90;;;;;;5071784;28;20499;-61
2021/04/04 05:49:47;;;;;;;;;;;7.60;99.90;;;;;;5071743;28;20056;-61
2021/04/04 05:52:47;;;;;;;29.92;13.70;;;7.50;99.90;;;;;;5068775;28;20387;-61
2021/04/04 05:55:23;;;;;;;28.17;13.57;;;7.40;99.90;;;;;;5068807;28;20093;-61
2021/04/04 05:58:17;;;;;;;30.70;13.85;;;7.40;99.90;;;;;;5071601;28;20103;-61
2021/04/04 06:00:46;;;;;;;33.67;13.90;;;7.20;99.90;;;;;;5069816;28;20532;-61
2021/04/04 06:03:11;;;;;;;30.45;13.63;;;7.20;99.90;;;;;;5071455;28;20083;-61
2021/04/04 06:06:07;;;;;;;38.03;14.82;;;7.40;99.90;;;;;;5070903;28;20554;-61
2021/04/04 06:08:57;;;;;;;31.00;14.15;;;7.50;99.90;;;;;;5071268;28;20024;-61
2021/04/04 06:12:10;;;;;;;37.60;14.23;;;7.40;99.90;;;;;;5071202;28;20051;-61
2021/04/04 06:15:10;;;;;;;34.88;14.15;;;7.30;99.90;;;;;;5067237;28;20044;-61
2021/04/04 06:17:54;;;;;;;36.33;13.05;;;7.30;99.90;;;;;;5037849;28;20380;-61
2021/04/04 06:20:40;;;;;;;32.90;14.02;;;7.40;99.90;;;;;;5071077;28;20025;-61
2021/04/04 06:23:17;;;;;;;33.60;13.07;;;7.50;99.90;;;;;;5070876;28;20021;-61
2021/04/04 06:26:01;;;;;;;33.38;12.82;;;7.50;99.90;;;;;;5071250;28;20035;-61
2021/04/04 06:29:02;;;;;;;32.75;12.68;;;7.50;99.90;;;;;;5071365;28;20031;-61
2021/04/04 06:32:04;;;;;;;41.67;12.85;;;7.60;99.90;;;;;;5066504;28;20043;-61
2021/04/04 06:34:36;;;;;;;30.25;12.20;;;7.60;99.90;;;;;;5070798;28;20070;-61
2021/04/04 06:37:25;;;;;;;28.08;11.93;;;7.60;99.90;;;;;;5070829;28;20063;-61
2021/04/04 06:40:01;;;;;;;32.58;12.65;;;7.70;99.90;;;;;;5070773;28;20029;-61
2021/04/04 06:42:43;;;;;;;35.28;13.23;;;7.80;99.90;;;;;;5069306;28;20020;-61
2021/04/04 06:45:19;;;;;;;29.52;11.90;;;7.70;99.90;;;;;;5070854;28;20024;-61
2021/04/04 06:48:05;;;;;;;29.48;12.27;;;7.60;99.90;;;;;;5071913;28;20035;-61
2021/04/04 06:50:37;;;;;;;31.98;13.75;;;7.60;99.90;;;;;;5070774;28;20040;-61
2021/04/04 06:53:15;;;;;;;28.08;12.60;;;7.70;99.90;;;;;;5070484;28;20028;-61
2021/04/04 06:55:54;;;;;;;29.58;12.60;;;7.80;99.90;;;;;;5070852;28;20028;-61
2021/04/04 06:58:32;;;;;;;27.33;12.55;;;7.90;99.90;;;;;;5069862;28;20047;-61
2021/04/04 07:01:18;;;;;;;35.78;13.32;;;7.90;99.90;;;;;;5071435;28;20024;-61
2021/04/04 07:03:58;;;;;;;27.48;12.95;;;7.80;99.90;;;;;;5071747;28;20025;-61
2021/04/04 07:06:27;;;;;;;31.85;13.40;;;7.90;99.90;;;;;;5069882;28;20166;-61
2021/04/04 07:09:01;;;;;;;28.77;13.32;;;8.00;99.90;;;;;;5071107;28;20025;-61
2021/04/04 07:11:42;;;;;;;30.10;13.73;;;8.00;99.90;;;;;;5069412;28;20039;-61
2021/04/04 07:14:23;;;;;;;35.88;14.32;;;8.10;99.90;;;;;;5070714;28;20026;-61
2021/04/04 07:17:09;;;;;;;30.77;15.68;;;8.00;99.90;;;;;;5071616;28;20044;-61
2021/04/04 07:19:53;;;;;;;33.33;18.02;;;7.90;99.90;;;;;;5073902;28;20020;-61
2021/04/04 07:22:41;;;;;;;38.88;18.50;;;7.80;99.90;;;;;;5073695;28;20028;-61
2021/04/04 07:25:33;;;;;;;39.72;18.60;;;7.80;99.90;;;;;;5074044;28;20034;-61
2021/04/04 07:28:12;;;;;;;39.95;19.30;;;7.80;99.90;;;;;;5064544;28;20039;-61
2021/04/04 07:30:43;;;;;;;37.70;20.45;;;7.80;99.90;;;;;;5074071;28;20523;-61
2021/04/04 07:33:46;;;;;;;41.50;20.80;;;7.70;99.90;;;;;;5072714;28;20028;-61
2021/04/04 07:36:37;;;;;;;39.50;20.43;;;7.80;99.90;;;;;;5072567;28;20071;-61
2021/04/04 07:39:28;;;;;;;34.35;18.77;;;7.80;99.90;;;;;;5074196;28;20016;-60
2021/04/04 07:41:56;;;;;;;40.63;19.73;;;7.80;99.90;;;;;;5074303;28;21095;-61
2021/04/04 07:44:54;;;;;;;41.03;20.02;;;7.80;99.90;;;;;;5074770;28;20025;-61
2021/04/04 07:47:26;;;;;;;33.53;19.10;;;8.00;99.90;;;;;;5074250;28;20125;-61
2021/04/04 07:50:40;;;;;;;41.28;19.38;;;7.80;99.90;;;;;;5073768;28;20040;-61
2021/04/04 07:53:29;;;;;;;34.92;19.55;;;7.60;99.90;;;;;;5058970;28;20497;-61
2021/04/04 07:56:00;;;;;;;37.30;20.38;;;7.60;99.90;;;;;;5073510;28;20545;-61
2021/04/04 07:58:35;;;;;;;39.87;19.87;;;7.70;99.90;;;;;;5073699;28;20508;-61
2021/04/04 08:01:04;;;;;;;41.72;19.77;;;7.80;99.90;;;;;;5072609;28;20311;-61
2021/04/04 08:04:12;;;;;;;27.20;15.73;;;7.70;99.90;;;;;;5073450;28;20021;-61
2021/04/04 08:06:46;;;;;;;37.33;16.45;;;7.70;99.90;;;;;;5067611;28;20054;-61
2021/04/04 08:09:20;;;;;;;36.70;15.50;;;7.60;99.90;;;;;;5073261;28;20424;-61
2021/04/04 08:12:17;;;;;;;31.15;14.98;;;7.80;99.90;;;;;;5073234;28;20488;-61
2021/04/04 08:14:53;;;;;;;30.90;12.93;;;7.90;99.90;;;;;;5073196;28;20028;-61
2021/04/04 08:17:19;;;;;;;25.17;12.25;;;8.00;99.90;;;;;;5071999;28;20079;-61
2021/04/04 08:19:58;;;;;;;29.30;12.65;;;8.10;99.90;;;;;;5073101;28;20477;-62
2021/04/04 08:22:33;;;;;;;27.15;12.95;;;8.10;99.90;;;;;;5072888;28;20059;-61
2021/04/04 08:25:08;;;;;;;28.35;11.95;;;8.10;99.90;;;;;;5073022;28;20073;-61
2021/04/04 08:27:37;;;;;;;25.98;11.57;;;8.10;99.90;;;;;;5072994;28;20389;-61
2021/04/04 08:30:17;;;;;;;20.75;10.77;;;8.00;99.90;;;;;;5073201;28;20377;-61
2021/04/04 08:32:54;;;;;;;21.92;11.32;;;8.10;99.90;;;;;;5072902;28;20385;-61
2021/04/04 08:35:29;;;;;;;23.88;12.05;;;8.10;99.90;;;;;;5073078;28;20031;-61
2021/04/04 08:38:00;;;;;;;27.02;12.55;;;8.20;99.90;;;;;;5072334;28;20024;-61
2021/04/04 08:40:26;;;;;;;20.85;11.63;;;8.30;99.90;;;;;;5071960;28;20481;-61
2021/04/04 08:42:51;;;;;;;28.50;14.07;;;8.20;99.90;;;;;;5072443;28;20020;-61
2021/04/04 08:45:40;;;;;;;29.60;17.48;;;7.90;99.90;;;;;;5072882;28;20032;-61
2021/04/04 08:48:06;;;;;;;36.00;21.95;;;7.90;99.90;;;;;;5072896;28;20024;-61
2021/04/04 08:50:35;;;;;;;46.22;23.63;;;8.00;99.90;;;;;;5073088;28;20051;-61
2021/04/04 08:53:31;;;;;;;43.30;23.65;;;8.20;99.90;;;;;;5072404;28;20401;-61
2021/04/04 08:55:59;;;;;;;34.67;18.05;;;8.20;99.90;;;;;;5072012;28;20013;-61
2021/04/04 08:58:38;;;;;;;26.13;13.05;;;8.10;99.90;;;;;;5070839;28;20365;-61
2021/04/04 09:01:15;;;;;;;21.42;11.55;;;8.00;99.90;;;;;;5072067;28;20376;-61
2021/04/04 09:03:47;;;;;;;26.30;11.98;;;8.00;99.90;;;;;;5071057;28;20515;-61
2021/04/04 09:06:13;;;;;;;23.35;10.95;;;8.00;99.90;;;;;;5070694;28;20016;-61
2021/04/04 09:08:42;;;;;;;19.58;9.93;;;8.20;99.90;;;;;;5072404;28;20040;-61
2021/04/04 09:11:11;;;;;;;20.58;9.60;;;8.20;99.90;;;;;;5071845;28;20025;-61
2021/04/04 09:13:37;;;;;;;24.10;8.65;;;8.20;99.90;;;;;;5070567;28;20116;-61
2021/04/04 09:16:12;;;;;;;18.13;8.60;;;8.20;99.90;;;;;;5071745;28;20021;-61
2021/04/04 09:18:50;;;;;;;19.27;8.40;;;8.50;99.90;;;;;;5071839;28;20032;-61
2021/04/04 09:21:23;;;;;;;26.67;9.23;;;8.60;99.90;;;;;;5071858;28;20048;-61
2021/04/04 09:23:53;;;;;;;19.27;8.38;;;8.70;99.90;;;;;;5072100;28;20033;-61
2021/04/04 09:26:24;;;;;;;19.67;7.93;;;9.00;99.90;;;;;;5071788;28;20108;-61
2021/04/04 09:28:51;;;;;;;20.20;8.80;;;9.50;99.90;;;;;;5072258;28;20029;-61
2021/04/04 09:31:18;;;;;;;18.02;8.50;;;9.40;99.90;;;;;;5071740;28;20107;-61
2021/04/04 09:34:03;;;;;;;19.60;8.45;;;9.10;99.90;;;;;;5071798;28;20099;-61
2021/04/04 09:36:43;;;;;;;21.83;9.02;;;9.10;99.90;;;;;;5070599;28;20025;-61
2021/04/04 09:39:11;;;;;;;19.38;8.55;;;9.00;99.90;;;;;;5069870;28;20074;-61
2021/04/04 09:41:40;;;;;;;16.63;8.07;;;9.10;99.90;;;;;;5071312;28;20071;-61
2021/04/04 09:44:08;;;;;;;15.45;8.07;;;9.30;99.90;;;;;;5071592;28;20614;-61
2021/04/04 09:46:48;;;;;;;22.25;9.73;;;9.30;99.90;;;;;;5070400;28;20029;-61
2021/04/04 09:49:49;;;;;;;22.95;9.30;;;9.30;99.90;;;;;;5069699;28;20052;-61
2021/04/04 09:52:28;;;;;;;23.98;9.25;;;9.40;99.90;;;;;;5071520;28;20389;-61
2021/04/04 09:55:18;;;;;;;18.17;9.43;;;9.30;99.90;;;;;;5071375;28;20024;-61
2021/04/04 09:57:50;;;;;;;18.80;9.07;;;9.50;99.90;;;;;;5070877;28;20501;-61
2021/04/04 10:00:28;;;;;;;22.98;10.55;;;9.70;99.90;;;;;;5070122;28;20127;-61
2021/04/04 10:02:56;;;;;;;21.45;9.90;;;9.20;99.90;;;;;;5070233;28;20432;-61
2021/04/04 10:05:38;;;;;;;29.70;10.25;;;9.20;99.90;;;;;;5071241;28;20036;-61
2021/04/04 10:08:13;;;;;;;20.80;11.95;;;9.20;99.90;;;;;;5071564;28;20036;-61
2021/04/04 10:10:40;;;;;;;26.52;10.07;;;9.20;99.90;;;;;;5070006;28;20033;-61
2021/04/04 10:13:06;;;;;;;21.50;9.30;;;9.50;99.90;;;;;;5071395;28;20389;-61
2021/04/04 10:15:42;;;;;;;20.20;9.57;;;9.60;99.90;;;;;;5071134;28;20024;-61
2021/04/04 10:18:08;;;;;;;23.52;9.77;;;9.40;99.90;;;;;;5071434;28;20430;-61
2021/04/04 10:20:38;;;;;;;19.92;9.77;;;9.40;99.90;;;;;;5071202;28;20016;-61
2021/04/04 10:23:06;;;;;;;23.50;10.68;;;9.50;99.90;;;;;;5069786;28;20508;-61
2021/04/04 10:25:32;;;;;;;23.38;10.02;;;9.60;99.90;;;;;;5071592;28;20024;-61
2021/04/04 10:28:11;;;;;;;21.77;9.27;;;9.30;99.90;;;;;;5071415;28;20082;-61
2021/04/04 10:30:37;;;;;;;23.85;8.75;;;9.00;99.90;;;;;;5071203;28;20107;-61
2021/04/04 10:33:17;;;;;;;24.40;9.35;;;9.20;99.90;;;;;;5069879;28;20032;-61
2021/04/04 10:35:43;;;;;;;21.67;9.55;;;9.50;99.90;;;;;;5069822;28;20021;-61
2021/04/04 10:38:18;;;;;;;20.92;8.45;;;9.60;99.90;;;;;;5071123;28;20378;-61
2021/04/04 10:40:58;;;;;;;20.55;8.93;;;9.70;99.90;;;;;;5071233;28;20102;-61
2021/04/04 10:43:36;;;;;;;21.60;8.20;;;10.00;99.90;;;;;;5071264;28;20020;-61
2021/04/04 10:46:04;;;;;;;17.88;7.63;;;9.70;99.90;;;;;;5071149;28;20035;-61
2021/04/04 10:48:32;;;;;;;18.90;7.70;;;9.70;99.90;;;;;;5069617;28;20135;-61
2021/04/04 10:50:58;;;;;;;24.15;8.85;;;9.80;99.90;;;;;;5070342;28;20045;-61
2021/04/04 10:53:24;;;;;;;20.02;8.50;;;9.70;99.90;;;;;;5074382;28;20078;-61
2021/04/04 10:55:51;;;;;;;20.08;8.30;;;9.80;99.90;;;;;;5074709;28;20540;-60
2021/04/04 10:58:20;;;;;;;24.33;10.75;;;9.80;99.90;;;;;;5073230;28;20109;-60
2021/04/04 11:00:46;;;;;;;20.67;10.18;;;9.70;99.80;;;;;;5072866;28;20115;-60
2021/04/04 11:03:12;;;;;;;23.02;11.75;;;9.70;99.90;;;;;;5072807;28;20028;-60
2021/04/04 11:05:38;;;;;;;19.88;13.25;;;9.90;99.60;;;;;;5074076;28;20044;-60
2021/04/04 11:08:04;;;;;;;27.75;15.38;;;9.80;99.60;;;;;;5074233;28;20346;-60
2021/04/04 11:10:30;;;;;;;28.83;14.50;;;9.80;99.10;;;;;;5074126;28;20024;-60
2021/04/04 11:13:00;;;;;;;29.15;14.57;;;9.80;99.40;;;;;;5074243;28;20035;-60
2021/04/04 11:15:29;;;;;;;34.55;15.48;;;9.90;99.00;;;;;;5073248;28;20481;-60
2021/04/04 11:17:55;;;;;;;32.35;15.30;;;10.10;98.90;;;;;;5074454;28;20096;-60
2021/04/04 11:20:22;;;;;;;24.58;14.52;;;10.20;98.60;;;;;;5074038;28;20473;-60
2021/04/04 11:22:48;;;;;;;26.15;15.52;;;10.20;98.30;;;;;;5073798;28;20496;-60
2021/04/04 11:25:16;;;;;;;28.85;17.13;;;10.00;98.90;;;;;;5073675;28;20477;-60
2021/04/04 11:27:48;;;;;;;31.42;14.77;;;10.00;98.80;;;;;;5073482;28;20040;-60
2021/04/04 11:30:35;;;;;;;31.67;15.10;;;10.10;98.70;;;;;;5072117;28;20028;-60
2021/04/04 11:33:16;;;;;;;24.85;14.13;;;10.10;98.60;;;;;;5072240;28;20029;-60
2021/04/04 11:36:02;;;;;;;33.20;16.30;;;10.50;98.20;;;;;;5074245;28;20028;-60
2021/04/04 11:38:30;;;;;;;31.33;18.58;;;10.80;97.80;;;;;;5074540;28;20031;-61
2021/04/04 11:41:13;;;;;;;27.73;17.15;;;10.70;97.40;;;;;;5073465;28;20024;-61
2021/04/04 11:43:39;;;;;;;29.85;17.02;;;10.30;98.00;;;;;;5073548;28;20020;-61
2021/04/04 11:46:05;;;;;;;31.88;18.45;;;10.30;98.20;;;;;;5073380;28;20496;-61
2021/04/04 11:48:33;;;;;;;31.48;18.23;;;10.40;98.20;;;;;;5073455;28;20024;-61
2021/04/04 11:51:10;;;;;;;31.45;18.25;;;10.60;97.90;;;;;;5072238;28;20053;-61
2021/04/04 11:53:42;;;;;;;34.83;18.42;;;10.60;97.90;;;;;;5072132;28;20505;-61
2021/04/04 11:56:09;;;;;;;29.88;17.42;;;10.30;98.20;;;;;;5073509;28;20040;-61
2021/04/04 11:58:35;;;;;;;33.30;18.70;;;9.90;98.50;;;;;;5073546;28;20043;-61
2021/04/04 12:01:00;;;;;;;35.20;18.45;;;10.10;98.50;;;;;;5073586;28;20111;-61
2021/04/04 12:03:27;;;;;;;29.75;17.23;;;10.20;98.70;;;;;;5072494;28;20039;-61
2021/04/04 12:05:53;;;;;;;34.70;16.17;;;10.20;98.50;;;;;;5073230;28;20021;-61
2021/04/04 12:08:29;;;;;;;29.40;15.80;;;10.10;98.60;;;;;;5073495;28;20096;-61
2021/04/04 12:10:56;;;;;;;23.92;15.20;;;10.10;98.90;;;;;;5073189;28;20020;-61
2021/04/04 12:13:22;;;;;;;22.83;14.48;;;10.10;98.50;;;;;;5073185;28;20079;-61
2021/04/04 12:15:47;;;;;;;28.10;15.10;;;10.00;98.40;;;;;;5073131;28;20044;-61
2021/04/04 12:18:13;;;;;;;22.95;13.82;;;9.80;98.80;;;;;;5071682;28;20514;-60
2021/04/04 12:20:39;;;;;;;24.98;14.35;;;9.90;98.80;;;;;;5073245;28;20035;-60
2021/04/04 12:23:14;;;;;;;32.33;16.17;;;9.90;98.90;;;;;;5072768;28;20144;-60
2021/04/04 12:25:40;;;;;;;22.98;14.05;;;10.10;99.00;;;;;;5071721;28;20021;-60
2021/04/04 12:28:09;;;;;;;24.30;14.73;;;9.90;98.70;;;;;;5073049;28;20063;-60
2021/04/04 12:30:40;;;;;;;23.73;14.30;;;10.00;98.80;;;;;;5071516;28;20397;-60
2021/04/04 12:33:17;;;;;;;22.40;13.68;;;10.00;98.90;;;;;;5072962;28;20028;-61
2021/04/04 12:35:48;;;;;;;24.13;13.45;;;10.30;98.30;;;;;;5073046;28;20078;-61
2021/04/04 12:38:26;;;;;;;20.23;12.98;;;10.40;97.90;;;;;;5073178;28;20029;-61
2021/04/04 12:40:52;;;;;;;25.75;14.02;;;10.40;98.00;;;;;;5071622;28;20036;-61
2021/04/04 12:43:18;;;;;;;29.17;14.20;;;10.50;97.90;;;;;;5071267;28;20511;-61
2021/04/04 12:45:44;;;;;;;22.73;13.30;;;10.40;98.10;;;;;;5072761;28;20055;-61
2021/04/04 12:48:17;;;;;;;21.10;13.95;;;10.50;97.80;;;;;;5072700;28;20024;-61
2021/04/04 12:50:51;;;;;;;22.80;13.55;;;10.40;98.30;;;;;;5072652;28;20109;-61
2021/04/04 12:53:23;;;;;;;25.77;13.88;;;10.50;98.00;;;;;;5072596;28;20169;-61
2021/04/04 12:55:49;;;;;;;27.13;13.32;;;10.30;98.20;;;;;;5072515;28;20121;-61
2021/04/04 12:58:16;;;;;;;29.92;14.38;;;10.30;98.30;;;;;;5072607;28;20465;-61
2021/04/04 13:00:43;;;;;;;25.35;13.20;;;10.50;98.20;;;;;;5072388;28;20044;-61
2021/04/04 13:03:19;;;;;;;22.85;13.80;;;10.40;98.40;;;;;;5072428;28;20056;-61
2021/04/04 13:05:50;;;;;;;23.30;13.13;;;10.30;98.20;;;;;;5072268;28;20017;-61